sensor_id;sensor_type;location;lat;lon;timestamp;pressure;altitude;pressure_sealevel;temperature;humidity
48156;BME280;35568;48.104;11.782;2022-10-19T00:01:00;96331.58;;;16.28;53.42
48156;BME280;35568;48.104;11.782;2022-10-19T00:03:27;96330.11;;;16.34;53.18
48156;BME280;35568;48.104;11.782;2022-10-19T00:05:54;96328.07;;;16.18;53.33
48156;BME280;35568;48.104;11.782;2022-10-19T00:08:21;96324.22;;;16.06;53.40
48156;BME280;35568;48.104;11.782;2022-10-19T00:10:48;96326.70;;;16.17;53.64
48156;BME280;35568;48.104;11.782;2022-10-19T00:13:15;96323.75;;;16.02;53.59
48156;BME280;35568;48.104;11.782;2022-10-19T00:15:42;96326.21;;;16.23;53.46
48156;BME280;35568;48.104;11.782;2022-10-19T00:18:08;96327.51;;;16.05;53.60
48156;BME280;35568;48.104;11.782;2022-10-19T00:20:36;96329.72;;;16.13;53.50
48156;BME280;35568;48.104;11.782;2022-10-19T00:23:03;96332.40;;;16.15;53.53
48156;BME280;35568;48.104;11.782;2022-10-19T00:25:30;96334.76;;;16.26;53.44
48156;BME280;35568;48.104;11.782;2022-10-19T00:27:56;96332.53;;;16.16;53.65
48156;BME280;35568;48.104;11.782;2022-10-19T00:30:23;96332.53;;;15.87;53.77
48156;BME280;35568;48.104;11.782;2022-10-19T00:32:50;96333.23;;;15.93;54.12
48156;BME280;35568;48.104;11.782;2022-10-19T00:35:17;96330.48;;;16.03;54.01
48156;BME280;35568;48.104;11.782;2022-10-19T00:37:44;96329.52;;;15.88;54.22
48156;BME280;35568;48.104;11.782;2022-10-19T00:40:11;96323.60;;;15.80;54.29
48156;BME280;35568;48.104;11.782;2022-10-19T00:42:38;96324.16;;;15.72;54.45
48156;BME280;35568;48.104;11.782;2022-10-19T00:45:11;96325.79;;;15.83;54.72
48156;BME280;35568;48.104;11.782;2022-10-19T00:47:39;96326.92;;;15.83;54.64
48156;BME280;35568;48.104;11.782;2022-10-19T00:50:07;96327.24;;;15.95;54.48
48156;BME280;35568;48.104;11.782;2022-10-19T00:52:34;96324.39;;;15.78;54.31
48156;BME280;35568;48.104;11.782;2022-10-19T00:55:01;96325.14;;;15.98;54.34
48156;BME280;35568;48.104;11.782;2022-10-19T00:57:30;96323.27;;;15.59;54.56
48156;BME280;35568;48.104;11.782;2022-10-19T00:59:59;96322.80;;;15.87;54.15
48156;BME280;35568;48.104;11.782;2022-10-19T01:02:27;96320.95;;;15.77;54.23
48156;BME280;35568;48.104;11.782;2022-10-19T01:04:54;96320.13;;;15.98;54.23
48156;BME280;35568;48.104;11.782;2022-10-19T01:07:23;96317.15;;;16.13;53.83
48156;BME280;35568;48.104;11.782;2022-10-19T01:09:50;96314.81;;;15.88;53.78
48156;BME280;35568;48.104;11.782;2022-10-19T01:12:27;96314.94;;;15.85;53.69
48156;BME280;35568;48.104;11.782;2022-10-19T01:15:07;96316.29;;;15.87;53.51
48156;BME280;35568;48.104;11.782;2022-10-19T01:17:46;96319.58;;;15.54;53.87
48156;BME280;35568;48.104;11.782;2022-10-19T01:20:46;96316.69;;;15.62;54.13
48156;BME280;35568;48.104;11.782;2022-10-19T01:23:37;96310.53;;;15.25;54.29
48156;BME280;35568;48.104;11.782;2022-10-19T01:26:24;96307.16;;;15.33;54.70
48156;BME280;35568;48.104;11.782;2022-10-19T01:29:07;96305.55;;;15.22;54.94
48156;BME280;35568;48.104;11.782;2022-10-19T01:31:44;96302.97;;;15.07;54.57
48156;BME280;35568;48.104;11.782;2022-10-19T01:34:15;96297.97;;;15.12;54.47
48156;BME280;35568;48.104;11.782;2022-10-19T01:36:49;96298.78;;;15.27;54.30
48156;BME280;35568;48.104;11.782;2022-10-19T01:39:25;96296.88;;;15.24;54.44
48156;BME280;35568;48.104;11.782;2022-10-19T01:41:59;96305.44;;;15.62;54.19
48156;BME280;35568;48.104;11.782;2022-10-19T01:44:34;96300.49;;;15.54;54.37
48156;BME280;35568;48.104;11.782;2022-10-19T01:47:06;96298.04;;;15.00;55.09
48156;BME280;35568;48.104;11.782;2022-10-19T01:49:40;96296.30;;;15.38;54.50
48156;BME280;35568;48.104;11.782;2022-10-19T01:52:12;96296.06;;;15.28;54.36
48156;BME280;35568;48.104;11.782;2022-10-19T01:54:43;96296.49;;;15.67;54.14
48156;BME280;35568;48.104;11.782;2022-10-19T01:57:12;96300.34;;;15.71;54.22
48156;BME280;35568;48.104;11.782;2022-10-19T01:59:43;96297.74;;;15.79;54.21
48156;BME280;35568;48.104;11.782;2022-10-19T02:02:12;96297.25;;;15.66;54.20
48156;BME280;35568;48.104;11.782;2022-10-19T02:04:40;96297.90;;;15.60;54.37
48156;BME280;35568;48.104;11.782;2022-10-19T02:07:08;96299.60;;;15.85;54.44
48156;BME280;35568;48.104;11.782;2022-10-19T02:09:36;96296.18;;;15.98;54.37
48156;BME280;35568;48.104;11.782;2022-10-19T02:12:07;96301.73;;;15.80;54.40
48156;BME280;35568;48.104;11.782;2022-10-19T02:14:38;96300.37;;;16.04;54.24
48156;BME280;35568;48.104;11.782;2022-10-19T02:17:09;96297.66;;;16.04;54.17
48156;BME280;35568;48.104;11.782;2022-10-19T02:19:36;96298.21;;;16.07;54.30
48156;BME280;35568;48.104;11.782;2022-10-19T02:22:03;96297.17;;;16.12;54.20
48156;BME280;35568;48.104;11.782;2022-10-19T02:24:31;96297.04;;;16.22;54.50
48156;BME280;35568;48.104;11.782;2022-10-19T02:26:58;96299.37;;;15.43;55.08
48156;BME280;35568;48.104;11.782;2022-10-19T02:29:26;96296.26;;;15.62;55.28
48156;BME280;35568;48.104;11.782;2022-10-19T02:31:54;96293.64;;;15.46;55.23
48156;BME280;35568;48.104;11.782;2022-10-19T02:34:21;96287.21;;;15.75;54.83
48156;BME280;35568;48.104;11.782;2022-10-19T02:36:49;96281.88;;;16.10;54.45
48156;BME280;35568;48.104;11.782;2022-10-19T02:39:16;96277.97;;;15.97;54.32
48156;BME280;35568;48.104;11.782;2022-10-19T02:41:46;96279.37;;;15.99;54.28
48156;BME280;35568;48.104;11.782;2022-10-19T02:44:18;96277.47;;;16.09;54.21
48156;BME280;35568;48.104;11.782;2022-10-19T02:46:49;96278.29;;;16.14;54.20
48156;BME280;35568;48.104;11.782;2022-10-19T02:49:18;96278.78;;;16.10;54.24
48156;BME280;35568;48.104;11.782;2022-10-19T02:51:57;96277.00;;;16.07;54.36
48156;BME280;35568;48.104;11.782;2022-10-19T02:54:24;96276.28;;;16.30;54.31
48156;BME280;35568;48.104;11.782;2022-10-19T02:56:51;96275.05;;;16.35;54.28
48156;BME280;35568;48.104;11.782;2022-10-19T02:59:18;96272.63;;;16.08;54.27
48156;BME280;35568;48.104;11.782;2022-10-19T03:03:02;96272.63;;;16.27;54.08
48156;BME280;35568;48.104;11.782;2022-10-19T03:05:29;96271.90;;;15.96;54.24
48156;BME280;35568;48.104;11.782;2022-10-19T03:07:56;96271.25;;;15.90;54.30
48156;BME280;35568;48.104;11.782;2022-10-19T03:10:23;96271.32;;;15.95;54.53
48156;BME280;35568;48.104;11.782;2022-10-19T03:12:50;96270.69;;;15.84;54.33
48156;BME280;35568;48.104;11.782;2022-10-19T03:15:18;96269.87;;;15.92;54.25
48156;BME280;35568;48.104;11.782;2022-10-19T03:17:46;96267.95;;;15.88;54.24
48156;BME280;35568;48.104;11.782;2022-10-19T03:20:12;96270.65;;;15.83;54.20
48156;BME280;35568;48.104;11.782;2022-10-19T03:22:39;96268.38;;;15.52;54.27
48156;BME280;35568;48.104;11.782;2022-10-19T03:25:06;96269.74;;;15.82;54.10
48156;BME280;35568;48.104;11.782;2022-10-19T03:27:33;96269.09;;;15.85;54.22
48156;BME280;35568;48.104;11.782;2022-10-19T03:30:00;96265.23;;;15.81;54.50
48156;BME280;35568;48.104;11.782;2022-10-19T03:32:27;96263.14;;;15.90;54.20
48156;BME280;35568;48.104;11.782;2022-10-19T03:34:54;96264.64;;;15.90;54.01
48156;BME280;35568;48.104;11.782;2022-10-19T03:37:21;96268.07;;;15.58;54.60
48156;BME280;35568;48.104;11.782;2022-10-19T03:39:47;96263.93;;;15.38;54.92
48156;BME280;35568;48.104;11.782;2022-10-19T03:42:15;96260.67;;;15.34;54.93
48156;BME280;35568;48.104;11.782;2022-10-19T03:44:42;96258.09;;;15.58;55.11
48156;BME280;35568;48.104;11.782;2022-10-19T03:47:08;96254.41;;;15.57;54.68
48156;BME280;35568;48.104;11.782;2022-10-19T03:49:35;96251.88;;;15.83;54.84
48156;BME280;35568;48.104;11.782;2022-10-19T03:52:03;96249.51;;;15.22;54.79
48156;BME280;35568;48.104;11.782;2022-10-19T03:54:30;96248.41;;;15.54;54.56
48156;BME280;35568;48.104;11.782;2022-10-19T03:56:57;96246.13;;;15.56;54.64
48156;BME280;35568;48.104;11.782;2022-10-19T03:59:25;96247.31;;;15.89;54.39
48156;BME280;35568;48.104;11.782;2022-10-19T04:01:51;96245.88;;;15.48;54.45
48156;BME280;35568;48.104;11.782;2022-10-19T04:04:19;96243.64;;;15.71;54.57
48156;BME280;35568;48.104;11.782;2022-10-19T04:06:48;96239.39;;;15.33;54.63
48156;BME280;35568;48.104;11.782;2022-10-19T04:09:17;96242.48;;;15.49;54.81
48156;BME280;35568;48.104;11.782;2022-10-19T04:11:45;96242.10;;;14.96;54.84
48156;BME280;35568;48.104;11.782;2022-10-19T04:14:14;96242.28;;;15.23;54.81
48156;BME280;35568;48.104;11.782;2022-10-19T04:16:41;96243.60;;;15.59;54.58
48156;BME280;35568;48.104;11.782;2022-10-19T04:19:13;96246.16;;;15.62;54.57
48156;BME280;35568;48.104;11.782;2022-10-19T04:21:40;96247.20;;;15.46;54.77
48156;BME280;35568;48.104;11.782;2022-10-19T04:24:09;96249.72;;;15.26;54.63
48156;BME280;35568;48.104;11.782;2022-10-19T04:26:39;96249.95;;;15.33;54.50
48156;BME280;35568;48.104;11.782;2022-10-19T04:29:06;96250.43;;;15.52;54.61
48156;BME280;35568;48.104;11.782;2022-10-19T04:31:34;96251.01;;;15.21;54.76
48156;BME280;35568;48.104;11.782;2022-10-19T04:34:01;96253.87;;;15.13;54.93
48156;BME280;35568;48.104;11.782;2022-10-19T04:36:28;96251.32;;;15.55;54.93
48156;BME280;35568;48.104;11.782;2022-10-19T04:38:55;96247.78;;;15.44;54.67
48156;BME280;35568;48.104;11.782;2022-10-19T04:41:23;96246.64;;;15.81;54.58
48156;BME280;35568;48.104;11.782;2022-10-19T04:43:55;96244.45;;;15.87;54.45
48156;BME280;35568;48.104;11.782;2022-10-19T04:46:22;96240.32;;;15.49;54.18
48156;BME280;35568;48.104;11.782;2022-10-19T04:48:50;96235.80;;;15.57;54.35
48156;BME280;35568;48.104;11.782;2022-10-19T04:51:18;96233.15;;;15.41;54.73
48156;BME280;35568;48.104;11.782;2022-10-19T04:53:45;96232.16;;;15.17;54.73
48156;BME280;35568;48.104;11.782;2022-10-19T04:56:14;96232.32;;;15.42;54.61
48156;BME280;35568;48.104;11.782;2022-10-19T04:58:42;96232.65;;;15.42;54.67
48156;BME280;35568;48.104;11.782;2022-10-19T05:01:10;96230.16;;;15.41;54.74
48156;BME280;35568;48.104;11.782;2022-10-19T05:03:38;96229.18;;;15.70;54.69
48156;BME280;35568;48.104;11.782;2022-10-19T05:06:06;96227.80;;;15.69;54.42
48156;BME280;35568;48.104;11.782;2022-10-19T05:08:35;96222.78;;;15.43;54.29
48156;BME280;35568;48.104;11.782;2022-10-19T05:11:03;96221.39;;;15.83;54.37
48156;BME280;35568;48.104;11.782;2022-10-19T05:13:32;96219.81;;;15.53;54.45
48156;BME280;35568;48.104;11.782;2022-10-19T05:16:01;96218.98;;;15.46;54.73
48156;BME280;35568;48.104;11.782;2022-10-19T05:18:29;96216.92;;;15.27;54.78
48156;BME280;35568;48.104;11.782;2022-10-19T05:21:01;96214.72;;;15.51;54.76
48156;BME280;35568;48.104;11.782;2022-10-19T05:23:28;96217.03;;;15.91;54.75
48156;BME280;35568;48.104;11.782;2022-10-19T05:26:00;96213.48;;;15.62;54.58
48156;BME280;35568;48.104;11.782;2022-10-19T05:28:27;96210.28;;;15.84;54.62
48156;BME280;35568;48.104;11.782;2022-10-19T05:30:54;96209.87;;;15.98;54.48
48156;BME280;35568;48.104;11.782;2022-10-19T05:33:21;96208.04;;;15.67;54.90
48156;BME280;35568;48.104;11.782;2022-10-19T05:35:48;96208.66;;;15.68;55.08
48156;BME280;35568;48.104;11.782;2022-10-19T05:38:15;96208.90;;;15.42;55.32
48156;BME280;35568;48.104;11.782;2022-10-19T05:40:44;96204.74;;;15.66;55.09
48156;BME280;35568;48.104;11.782;2022-10-19T05:43:11;96202.93;;;15.43;55.71
48156;BME280;35568;48.104;11.782;2022-10-19T05:45:38;96202.50;;;15.63;55.52
48156;BME280;35568;48.104;11.782;2022-10-19T05:48:05;96204.17;;;15.72;54.96
48156;BME280;35568;48.104;11.782;2022-10-19T05:50:32;96207.00;;;16.00;54.85
48156;BME280;35568;48.104;11.782;2022-10-19T05:52:59;96210.97;;;16.10;54.70
48156;BME280;35568;48.104;11.782;2022-10-19T05:55:26;96210.80;;;16.03;54.54
48156;BME280;35568;48.104;11.782;2022-10-19T05:57:53;96217.26;;;16.22;54.55
48156;BME280;35568;48.104;11.782;2022-10-19T06:00:20;96221.00;;;16.07;54.43
48156;BME280;35568;48.104;11.782;2022-10-19T06:02:47;96219.94;;;16.16;54.46
48156;BME280;35568;48.104;11.782;2022-10-19T06:05:14;96220.50;;;16.26;54.34
48156;BME280;35568;48.104;11.782;2022-10-19T06:07:41;96222.57;;;16.40;54.15
48156;BME280;35568;48.104;11.782;2022-10-19T06:10:08;96221.47;;;16.00;54.40
48156;BME280;35568;48.104;11.782;2022-10-19T06:12:36;96224.88;;;16.37;54.22
48156;BME280;35568;48.104;11.782;2022-10-19T06:15:03;96227.43;;;16.46;54.08
48156;BME280;35568;48.104;11.782;2022-10-19T06:17:30;96228.14;;;16.57;53.97
48156;BME280;35568;48.104;11.782;2022-10-19T06:19:57;96227.03;;;16.63;54.02
48156;BME280;35568;48.104;11.782;2022-10-19T06:22:24;96230.97;;;16.69;53.92
48156;BME280;35568;48.104;11.782;2022-10-19T06:24:51;96232.29;;;16.65;54.08
48156;BME280;35568;48.104;11.782;2022-10-19T06:27:18;96234.48;;;16.72;54.04
48156;BME280;35568;48.104;11.782;2022-10-19T06:29:45;96231.67;;;16.38;54.47
48156;BME280;35568;48.104;11.782;2022-10-19T06:32:12;96239.56;;;16.73;54.22
48156;BME280;35568;48.104;11.782;2022-10-19T06:34:40;96238.84;;;16.61;54.37
48156;BME280;35568;48.104;11.782;2022-10-19T06:37:07;96241.66;;;16.55;54.32
48156;BME280;35568;48.104;11.782;2022-10-19T06:39:34;96243.02;;;16.19;54.60
48156;BME280;35568;48.104;11.782;2022-10-19T06:42:01;96246.17;;;16.12;54.72
48156;BME280;35568;48.104;11.782;2022-10-19T06:44:28;96250.26;;;16.32;54.67
48156;BME280;35568;48.104;11.782;2022-10-19T06:46:55;96250.79;;;16.25;54.84
48156;BME280;35568;48.104;11.782;2022-10-19T06:49:22;96249.63;;;16.26;54.86
48156;BME280;35568;48.104;11.782;2022-10-19T06:51:49;96251.07;;;16.24;55.03
48156;BME280;35568;48.104;11.782;2022-10-19T06:54:16;96253.95;;;16.05;54.87
48156;BME280;35568;48.104;11.782;2022-10-19T06:56:43;96256.69;;;16.28;54.96
48156;BME280;35568;48.104;11.782;2022-10-19T06:59:10;96258.51;;;16.08;55.54
48156;BME280;35568;48.104;11.782;2022-10-19T07:01:37;96256.29;;;16.16;55.78
48156;BME280;35568;48.104;11.782;2022-10-19T07:04:04;96256.89;;;16.23;56.11
48156;BME280;35568;48.104;11.782;2022-10-19T07:06:31;96258.52;;;16.07;56.04
48156;BME280;35568;48.104;11.782;2022-10-19T07:08:58;96259.51;;;16.16;55.78
48156;BME280;35568;48.104;11.782;2022-10-19T07:11:25;96261.02;;;16.21;56.14
48156;BME280;35568;48.104;11.782;2022-10-19T07:13:52;96264.79;;;16.28;55.82
48156;BME280;35568;48.104;11.782;2022-10-19T07:16:20;96263.46;;;15.96;56.29
48156;BME280;35568;48.104;11.782;2022-10-19T07:18:49;96263.13;;;15.82;56.61
48156;BME280;35568;48.104;11.782;2022-10-19T07:21:17;96262.82;;;16.18;56.66
48156;BME280;35568;48.104;11.782;2022-10-19T07:23:46;96264.46;;;16.10;56.60
48156;BME280;35568;48.104;11.782;2022-10-19T07:26:16;96263.13;;;16.24;56.26
48156;BME280;35568;48.104;11.782;2022-10-19T07:28:44;96261.85;;;16.82;55.69
48156;BME280;35568;48.104;11.782;2022-10-19T07:31:14;96262.48;;;16.62;55.16
48156;BME280;35568;48.104;11.782;2022-10-19T07:33:41;96262.56;;;16.52;55.27
48156;BME280;35568;48.104;11.782;2022-10-19T07:36:09;96263.14;;;16.73;54.95
48156;BME280;35568;48.104;11.782;2022-10-19T07:38:36;96263.44;;;16.63;54.90
48156;BME280;35568;48.104;11.782;2022-10-19T07:41:06;96261.58;;;16.72;55.10
48156;BME280;35568;48.104;11.782;2022-10-19T07:43:33;96261.65;;;16.92;54.64
48156;BME280;35568;48.104;11.782;2022-10-19T07:46:02;96262.95;;;16.88;54.28
48156;BME280;35568;48.104;11.782;2022-10-19T07:48:29;96264.01;;;16.97;54.60
48156;BME280;35568;48.104;11.782;2022-10-19T07:50:56;96263.87;;;17.00;54.60
48156;BME280;35568;48.104;11.782;2022-10-19T07:53:23;96263.83;;;16.89;54.78
48156;BME280;35568;48.104;11.782;2022-10-19T07:55:50;96264.25;;;16.75;54.94
48156;BME280;35568;48.104;11.782;2022-10-19T07:58:18;96266.18;;;16.89;54.95
48156;BME280;35568;48.104;11.782;2022-10-19T08:00:44;96269.59;;;16.47;54.44
48156;BME280;35568;48.104;11.782;2022-10-19T08:03:12;96267.96;;;16.94;54.33
48156;BME280;35568;48.104;11.782;2022-10-19T08:05:38;96268.78;;;16.73;54.06
48156;BME280;35568;48.104;11.782;2022-10-19T08:08:05;96266.83;;;16.87;53.99
48156;BME280;35568;48.104;11.782;2022-10-19T08:10:33;96266.72;;;16.95;54.07
48156;BME280;35568;48.104;11.782;2022-10-19T08:13:00;96265.69;;;17.29;53.88
48156;BME280;35568;48.104;11.782;2022-10-19T08:15:28;96265.94;;;16.97;53.63
48156;BME280;35568;48.104;11.782;2022-10-19T08:17:55;96265.66;;;17.08;53.51
48156;BME280;35568;48.104;11.782;2022-10-19T08:20:22;96269.14;;;17.43;52.96
48156;BME280;35568;48.104;11.782;2022-10-19T08:22:50;96269.99;;;17.53;52.85
48156;BME280;35568;48.104;11.782;2022-10-19T08:25:17;96267.37;;;17.57;52.56
48156;BME280;35568;48.104;11.782;2022-10-19T08:27:44;96265.94;;;17.76;52.29
48156;BME280;35568;48.104;11.782;2022-10-19T08:30:11;96267.46;;;17.83;52.05
48156;BME280;35568;48.104;11.782;2022-10-19T08:32:38;96267.49;;;17.76;52.14
48156;BME280;35568;48.104;11.782;2022-10-19T08:35:05;96269.26;;;17.92;52.12
48156;BME280;35568;48.104;11.782;2022-10-19T08:37:33;96266.70;;;17.88;52.03
48156;BME280;35568;48.104;11.782;2022-10-19T08:40:00;96267.24;;;17.94;51.87
48156;BME280;35568;48.104;11.782;2022-10-19T08:42:32;96268.01;;;17.70;52.18
48156;BME280;35568;48.104;11.782;2022-10-19T08:45:12;96266.38;;;17.66;52.09
48156;BME280;35568;48.104;11.782;2022-10-19T08:47:56;96265.82;;;17.86;52.11
48156;BME280;35568;48.104;11.782;2022-10-19T08:50:26;96271.53;;;18.09;51.98
48156;BME280;35568;48.104;11.782;2022-10-19T08:52:59;96275.63;;;17.94;51.44
48156;BME280;35568;48.104;11.782;2022-10-19T08:55:35;96272.42;;;17.95;51.59
48156;BME280;35568;48.104;11.782;2022-10-19T08:58:16;96268.96;;;17.95;51.58
48156;BME280;35568;48.104;11.782;2022-10-19T09:00:50;96267.25;;;17.59;51.92
48156;BME280;35568;48.104;11.782;2022-10-19T09:03:24;96269.76;;;17.80;52.12
48156;BME280;35568;48.104;11.782;2022-10-19T09:06:01;96268.41;;;17.91;51.97
48156;BME280;35568;48.104;11.782;2022-10-19T09:08:31;96267.88;;;17.70;52.24
48156;BME280;35568;48.104;11.782;2022-10-19T09:10:59;96263.37;;;17.79;52.08
48156;BME280;35568;48.104;11.782;2022-10-19T09:13:33;96263.96;;;17.92;51.93
48156;BME280;35568;48.104;11.782;2022-10-19T09:16:04;96266.10;;;17.81;52.00
48156;BME280;35568;48.104;11.782;2022-10-19T09:18:33;96265.72;;;17.85;51.80
48156;BME280;35568;48.104;11.782;2022-10-19T09:21:03;96263.73;;;17.94;51.63
48156;BME280;35568;48.104;11.782;2022-10-19T09:23:37;96266.14;;;18.06;51.29
48156;BME280;35568;48.104;11.782;2022-10-19T09:26:09;96270.35;;;17.90;51.14
48156;BME280;35568;48.104;11.782;2022-10-19T09:28:44;96269.68;;;18.05;51.32
48156;BME280;35568;48.104;11.782;2022-10-19T09:31:20;96268.37;;;17.96;50.94
48156;BME280;35568;48.104;11.782;2022-10-19T09:33:52;96267.39;;;17.88;51.18
48156;BME280;35568;48.104;11.782;2022-10-19T09:36:22;96269.02;;;17.82;51.25
48156;BME280;35568;48.104;11.782;2022-10-19T09:38:50;96271.23;;;17.60;51.68
48156;BME280;35568;48.104;11.782;2022-10-19T09:41:19;96275.82;;;17.62;51.67
48156;BME280;35568;48.104;11.782;2022-10-19T09:43:51;96279.11;;;17.58;51.84
48156;BME280;35568;48.104;11.782;2022-10-19T09:46:27;96279.16;;;17.70;51.66
48156;BME280;35568;48.104;11.782;2022-10-19T09:48:58;96280.76;;;17.62;51.45
48156;BME280;35568;48.104;11.782;2022-10-19T09:51:25;96283.08;;;17.32;51.58
48156;BME280;35568;48.104;11.782;2022-10-19T09:54:04;96282.57;;;17.81;51.32
48156;BME280;35568;48.104;11.782;2022-10-19T09:56:34;96280.91;;;17.76;51.27
48156;BME280;35568;48.104;11.782;2022-10-19T09:59:02;96281.05;;;17.35;52.08
48156;BME280;35568;48.104;11.782;2022-10-19T10:01:31;96282.97;;;17.58;51.64
48156;BME280;35568;48.104;11.782;2022-10-19T10:04:06;96279.80;;;17.45;51.54
48156;BME280;35568;48.104;11.782;2022-10-19T10:06:33;96280.24;;;17.39;51.73
48156;BME280;35568;48.104;11.782;2022-10-19T10:09:02;96273.96;;;17.61;51.59
48156;BME280;35568;48.104;11.782;2022-10-19T10:11:31;96273.85;;;17.69;51.29
48156;BME280;35568;48.104;11.782;2022-10-19T10:14:04;96277.67;;;18.03;50.96
48156;BME280;35568;48.104;11.782;2022-10-19T10:16:34;96278.20;;;18.14;50.67
48156;BME280;35568;48.104;11.782;2022-10-19T10:19:04;96278.28;;;18.42;50.54
48156;BME280;35568;48.104;11.782;2022-10-19T10:21:34;96276.61;;;18.34;49.99
48156;BME280;35568;48.104;11.782;2022-10-19T10:24:16;96271.66;;;18.80;49.43
48156;BME280;35568;48.104;11.782;2022-10-19T10:26:46;96271.73;;;18.32;49.23
48156;BME280;35568;48.104;11.782;2022-10-19T10:29:18;96268.37;;;18.48;48.96
48156;BME280;35568;48.104;11.782;2022-10-19T10:31:46;96264.39;;;18.52;49.11
48156;BME280;35568;48.104;11.782;2022-10-19T10:34:18;96263.88;;;18.31;49.20
48156;BME280;35568;48.104;11.782;2022-10-19T10:36:50;96261.62;;;18.17;49.15
48156;BME280;35568;48.104;11.782;2022-10-19T10:39:19;96257.07;;;18.60;49.01
48156;BME280;35568;48.104;11.782;2022-10-19T10:41:47;96254.40;;;18.76;48.94
48156;BME280;35568;48.104;11.782;2022-10-19T10:44:19;96251.94;;;18.26;49.04
48156;BME280;35568;48.104;11.782;2022-10-19T10:46:51;96251.06;;;18.55;49.45
48156;BME280;35568;48.104;11.782;2022-10-19T10:49:23;96251.89;;;18.59;49.08
48156;BME280;35568;48.104;11.782;2022-10-19T10:51:54;96251.06;;;18.78;48.99
48156;BME280;35568;48.104;11.782;2022-10-19T10:54:24;96249.08;;;18.46;48.77
48156;BME280;35568;48.104;11.782;2022-10-19T10:57:25;96241.86;;;18.59;48.36
48156;BME280;35568;48.104;11.782;2022-10-19T10:59:58;96241.16;;;18.52;48.29
48156;BME280;35568;48.104;11.782;2022-10-19T11:02:34;96239.83;;;18.92;48.11
48156;BME280;35568;48.104;11.782;2022-10-19T11:05:07;96235.65;;;18.90;48.24
48156;BME280;35568;48.104;11.782;2022-10-19T11:07:40;96228.90;;;18.68;47.92
48156;BME280;35568;48.104;11.782;2022-10-19T11:10:17;96233.30;;;19.03;47.56
48156;BME280;35568;48.104;11.782;2022-10-19T11:12:49;96227.70;;;18.89;47.17
48156;BME280;35568;48.104;11.782;2022-10-19T11:15:21;96225.41;;;19.10;47.25
48156;BME280;35568;48.104;11.782;2022-10-19T11:17:56;96222.15;;;19.20;47.17
48156;BME280;35568;48.104;11.782;2022-10-19T11:20:28;96216.66;;;18.66;47.39
48156;BME280;35568;48.104;11.782;2022-10-19T11:23:05;96215.38;;;19.06;46.56
48156;BME280;35568;48.104;11.782;2022-10-19T11:25:42;96213.86;;;19.24;46.64
48156;BME280;35568;48.104;11.782;2022-10-19T11:28:23;96212.32;;;17.95;46.34
48156;BME280;35568;48.104;11.782;2022-10-19T11:30:58;96211.77;;;19.37;46.03
48156;BME280;35568;48.104;11.782;2022-10-19T11:33:37;96214.63;;;19.45;46.18
48156;BME280;35568;48.104;11.782;2022-10-19T11:36:13;96210.90;;;19.45;45.92
48156;BME280;35568;48.104;11.782;2022-10-19T11:38:55;96206.43;;;19.55;45.95
48156;BME280;35568;48.104;11.782;2022-10-19T11:41:31;96206.76;;;19.26;45.92
48156;BME280;35568;48.104;11.782;2022-10-19T11:44:16;96204.91;;;19.37;45.73
48156;BME280;35568;48.104;11.782;2022-10-19T11:46:53;96194.70;;;19.51;45.75
48156;BME280;35568;48.104;11.782;2022-10-19T11:49:31;96191.04;;;19.34;45.33
48156;BME280;35568;48.104;11.782;2022-10-19T11:52:05;96185.70;;;19.38;45.76
48156;BME280;35568;48.104;11.782;2022-10-19T11:54:45;96181.42;;;19.40;45.68
48156;BME280;35568;48.104;11.782;2022-10-19T11:57:16;96177.27;;;19.32;45.65
48156;BME280;35568;48.104;11.782;2022-10-19T11:59:56;96175.83;;;19.34;45.53
48156;BME280;35568;48.104;11.782;2022-10-19T12:02:45;96173.42;;;19.58;45.25
48156;BME280;35568;48.104;11.782;2022-10-19T12:05:19;96170.28;;;19.62;45.37
48156;BME280;35568;48.104;11.782;2022-10-19T12:07:55;96168.81;;;19.73;45.46
48156;BME280;35568;48.104;11.782;2022-10-19T12:10:33;96163.13;;;19.98;45.04
48156;BME280;35568;48.104;11.782;2022-10-19T12:13:06;96163.99;;;20.11;44.63
48156;BME280;35568;48.104;11.782;2022-10-19T12:15:37;96163.18;;;19.82;44.64
48156;BME280;35568;48.104;11.782;2022-10-19T12:18:11;96160.75;;;19.65;44.56
48156;BME280;35568;48.104;11.782;2022-10-19T12:20:46;96159.84;;;19.73;44.97
48156;BME280;35568;48.104;11.782;2022-10-19T12:23:22;96158.26;;;19.77;44.55
48156;BME280;35568;48.104;11.782;2022-10-19T12:25:52;96158.31;;;19.44;44.69
48156;BME280;35568;48.104;11.782;2022-10-19T12:28:23;96152.60;;;19.41;45.36
48156;BME280;35568;48.104;11.782;2022-10-19T12:30:53;96149.64;;;19.32;45.04
48156;BME280;35568;48.104;11.782;2022-10-19T12:33:22;96147.45;;;19.41;44.97
48156;BME280;35568;48.104;11.782;2022-10-19T12:35:57;96140.86;;;19.49;44.94
48156;BME280;35568;48.104;11.782;2022-10-19T12:38:32;96137.86;;;19.30;45.19
48156;BME280;35568;48.104;11.782;2022-10-19T12:41:06;96135.19;;;19.12;45.51
48156;BME280;35568;48.104;11.782;2022-10-19T12:43:42;96132.15;;;18.98;45.42
48156;BME280;35568;48.104;11.782;2022-10-19T12:46:15;96124.93;;;18.74;46.05
48156;BME280;35568;48.104;11.782;2022-10-19T12:49:34;96120.16;;;19.01;45.98
48156;BME280;35568;48.104;11.782;2022-10-19T12:52:02;96119.56;;;19.20;45.52
48156;BME280;35568;48.104;11.782;2022-10-19T12:54:32;96113.09;;;19.45;44.98
48156;BME280;35568;48.104;11.782;2022-10-19T12:57:01;96108.06;;;19.66;44.71
48156;BME280;35568;48.104;11.782;2022-10-19T12:59:31;96108.42;;;19.40;45.47
48156;BME280;35568;48.104;11.782;2022-10-19T13:02:00;96104.26;;;19.18;45.36
48156;BME280;35568;48.104;11.782;2022-10-19T13:04:31;96098.20;;;19.67;44.97
48156;BME280;35568;48.104;11.782;2022-10-19T13:07:01;96102.40;;;19.22;44.97